Time;durP1;ratioP1;P1;durP2;ratioP2;P2;SDS_P1;SDS_P2;PMS_P1;PMS_P2;Temp;Humidity;BMP_temperature;BMP_pressure;BME280_temperature;BME280_humidity;BME280_pressure;Samples;Min_cycle;Max_cycle;Signal;HPM_P1;HPM_P2
2023/10/12 00:00:24;;;;;;;;;;;;;;;17.12;64.66;100339.97;4467127;32;33316;-69
2023/10/12 00:02:48;;;;;;;;;;;;;;;17.22;63.09;100344.56;4465384;32;32784;-73
2023/10/12 00:05:18;;;;;;;;;;;;;;;17.20;62.64;100338.41;4468661;32;33591;-70
2023/10/12 00:07:49;;;;;;;;;;;;;;;17.13;62.43;100328.63;4456753;32;35656;-69
2023/10/12 00:12:46;;;;;;;;;;;;;;;17.12;61.69;100325.13;4463439;32;33830;-71
2023/10/12 00:15:41;;;;;;;;;;;;;;;17.11;61.70;100320.72;4458806;32;32565;-69
2023/10/12 00:18:16;;;;;;;;;;;;;;;17.02;62.23;100318.75;4458394;32;34019;-68
2023/10/12 00:20:45;;;;;;;;;;;;;;;17.04;62.64;100319.69;4460161;32;33014;-69
2023/10/12 00:23:14;;;;;;;;;;;;;;;17.06;63.43;100310.12;4463033;32;34360;-69
2023/10/12 00:25:54;;;;;;;;;;;;;;;16.93;64.29;100315.88;4463751;32;34187;-68
2023/10/12 00:28:22;;;;;;;;;;;;;;;17.09;63.69;100312.84;4465510;32;34076;-71
2023/10/12 00:30:54;;;;;;;;;;;;;;;17.03;63.74;100307.44;4455544;32;33390;-69
2023/10/12 00:33:23;;;;;;;;;;;;;;;16.90;63.79;100310.56;4458936;32;34731;-68
2023/10/12 00:36:00;;;;;;;;;;;;;;;16.88;64.00;100310.53;4465688;32;34585;-69
2023/10/12 00:38:31;;;;;;;;;;;;;;;16.83;64.11;100303.41;4454684;32;34059;-68
2023/10/12 00:41:02;;;;;;;;;;;;;;;16.99;63.71;100302.97;4465531;32;32472;-69
2023/10/12 00:43:40;;;;;;;;;;;;;;;16.92;63.86;100298.44;4459308;32;33781;-70
2023/10/12 00:46:20;;;;;;;;;;;;;;;17.00;63.86;100302.13;4458555;32;33495;-72
2023/10/12 00:48:51;;;;;;;;;;;;;;;17.03;63.64;100296.97;4471016;32;32694;-72
2023/10/12 00:51:18;;;;;;;;;;;;;;;17.01;62.04;100293.41;4468151;32;33695;-70
2023/10/12 00:53:55;;;;;;;;;;;;;;;16.93;60.68;100294.06;4467074;32;34325;-69
2023/10/12 00:56:28;;;;;;;;;;;;;;;16.62;60.49;100299.31;4464886;32;34141;-72
2023/10/12 00:58:56;;;;;;;;;;;;;;;16.53;61.03;100301.66;4456780;32;33132;-71
2023/10/12 01:01:23;;;;;;;;;;;;;;;16.51;61.23;100295.50;4462066;32;34047;-69
2023/10/12 01:03:52;;;;;;;;;;;;;;;16.60;61.24;100289.66;4464773;32;34914;-69
2023/10/12 01:08:57;;;;;;;;;;;;;;;16.64;62.35;100286.28;4461824;32;34089;-68
2023/10/12 01:11:34;;;;;;;;;;;;;;;16.61;62.02;100292.31;4461317;32;33167;-68
2023/10/12 01:16:46;;;;;;;;;;;;;;;16.38;63.24;100293.38;4464896;32;34081;-68
2023/10/12 01:19:23;;;;;;;;;;;;;;;16.26;63.94;100283.44;4458385;32;34242;-70
2023/10/12 01:22:01;;;;;;;;;;;;;;;16.29;63.82;100276.56;4461406;32;33125;-72
2023/10/12 01:24:31;;;;;;;;;;;;;;;16.39;63.39;100269.00;4457359;32;34117;-70
2023/10/12 01:26:59;;;;;;;;;;;;;;;16.02;64.35;100273.16;4457978;32;33368;-69
2023/10/12 01:29:27;;;;;;;;;;;;;;;16.10;63.88;100271.66;4461994;32;34517;-68
2023/10/12 01:34:38;;;;;;;;;;;;;;;16.10;63.79;100269.03;4464279;32;33749;-68
2023/10/12 01:37:11;;;;;;;;;;;;;;;16.16;63.55;100268.34;4463247;32;34252;-68
2023/10/12 01:39:41;;;;;;;;;;;;;;;16.06;62.90;100269.78;4457762;32;34190;-68
2023/10/12 01:42:10;;;;;;;;;;;;;;;16.00;62.84;100272.22;4464672;32;33478;-69
2023/10/12 01:44:37;;;;;;;;;;;;;;;15.54;64.91;100267.28;4463041;32;34006;-69
2023/10/12 01:47:04;;;;;;;;;;;;;;;15.67;64.46;100265.09;4461245;32;33555;-69
2023/10/12 01:49:36;;;;;;;;;;;;;;;15.51;64.97;100269.81;4459887;32;34754;-68
2023/10/12 01:52:04;;;;;;;;;;;;;;;15.52;65.11;100266.34;4461174;32;34081;-68
2023/10/12 01:54:32;;;;;;;;;;;;;;;15.60;65.15;100268.31;4466382;32;34170;-68
2023/10/12 01:56:59;;;;;;;;;;;;;;;15.60;64.90;100278.78;4455399;32;33943;-68
2023/10/12 01:59:27;;;;;;;;;;;;;;;15.61;64.14;100271.00;4461208;32;34067;-68
2023/10/12 02:02:07;;;;;;;;;;;;;;;15.43;64.57;100279.12;4457962;32;33206;-68
2023/10/12 02:04:39;;;;;;;;;;;;;;;15.59;64.81;100279.59;4461128;32;34062;-68
2023/10/12 02:07:10;;;;;;;;;;;;;;;15.32;65.59;100273.53;4482596;26;35065;-72
2023/10/12 02:09:38;;;;;;;;;;;;;;;15.50;64.81;100272.38;4465413;32;33959;-73
2023/10/12 02:12:12;;;;;;;;;;;;;;;15.38;64.25;100272.88;4464298;32;33703;-73
2023/10/12 02:14:40;;;;;;;;;;;;;;;15.22;64.64;100265.34;4464717;32;33750;-72
2023/10/12 02:17:08;;;;;;;;;;;;;;;15.21;65.73;100268.81;4454067;32;33947;-71
2023/10/12 02:19:42;;;;;;;;;;;;;;;15.36;65.36;100273.66;4444290;32;34191;-72
2023/10/12 02:22:18;;;;;;;;;;;;;;;15.29;65.14;100277.78;4455822;32;33217;-75
2023/10/12 02:24:59;;;;;;;;;;;;;;;15.15;64.77;100279.91;4465021;32;34972;-73
2023/10/12 02:27:26;;;;;;;;;;;;;;;15.00;65.17;100279.41;4446952;32;32404;-72
2023/10/12 02:29:56;;;;;;;;;;;;;;;15.14;64.89;100271.22;4453632;32;34196;-72
2023/10/12 02:32:24;;;;;;;;;;;;;;;15.18;64.80;100268.69;4452695;32;32826;-74
2023/10/12 02:34:55;;;;;;;;;;;;;;;15.31;64.60;100270.87;4455324;32;36453;-72
2023/10/12 02:37:24;;;;;;;;;;;;;;;15.39;64.38;100274.63;4462831;32;34274;-74
2023/10/12 02:39:54;;;;;;;;;;;;;;;15.47;63.99;100280.09;4457699;32;33839;-74
2023/10/12 02:42:22;;;;;;;;;;;;;;;15.29;64.43;100276.03;4466084;32;33954;-75
2023/10/12 02:47:22;;;;;;;;;;;;;;;15.23;64.37;100273.22;4467777;32;34765;-73
2023/10/12 02:49:51;;;;;;;;;;;;;;;15.05;64.42;100268.28;4462285;32;33351;-73
2023/10/12 02:52:20;;;;;;;;;;;;;;;15.15;64.20;100269.47;4461999;32;33403;-73
2023/10/12 02:54:50;;;;;;;;;;;;;;;15.31;63.32;100269.16;4463648;32;34128;-72
2023/10/12 02:57:23;;;;;;;;;;;;;;;15.18;63.45;100271.28;4466373;32;33909;-74
2023/10/12 02:59:57;;;;;;;;;;;;;;;14.99;64.04;100262.88;4453515;32;33825;-74
2023/10/12 03:02:32;;;;;;;;;;;;;;;14.93;64.38;100262.62;4429591;32;32929;-74
2023/10/12 03:05:00;;;;;;;;;;;;;;;15.18;64.25;100268.69;4454745;32;33621;-75
2023/10/12 03:07:28;;;;;;;;;;;;;;;15.10;64.65;100263.22;4440870;32;34148;-71
2023/10/12 03:09:58;;;;;;;;;;;;;;;15.16;63.63;100259.94;4464357;32;34679;-74
2023/10/12 03:12:25;;;;;;;;;;;;;;;15.04;63.83;100256.06;4456151;32;33942;-74
2023/10/12 03:14:53;;;;;;;;;;;;;;;14.91;64.67;100253.87;4462048;32;34869;-73
2023/10/12 03:17:23;;;;;;;;;;;;;;;15.06;64.08;100248.28;4463455;32;33919;-74
2023/10/12 03:19:57;;;;;;;;;;;;;;;15.00;64.05;100258.53;4463512;32;34126;-73
2023/10/12 03:22:35;;;;;;;;;;;;;;;14.90;63.96;100265.16;4456824;32;33882;-73
2023/10/12 03:25:19;;;;;;;;;;;;;;;14.69;64.35;100271.37;4458426;32;34910;-71
2023/10/12 03:27:53;;;;;;;;;;;;;;;14.85;64.00;100264.97;4463243;32;34293;-74
2023/10/12 03:30:34;;;;;;;;;;;;;;;14.72;64.22;100273.22;4465605;32;33410;-71
2023/10/12 03:33:09;;;;;;;;;;;;;;;14.65;64.40;100272.09;4454175;32;34127;-73
2023/10/12 03:35:51;;;;;;;;;;;;;;;14.65;64.53;100264.28;4454902;32;34286;-75
2023/10/12 03:38:19;;;;;;;;;;;;;;;14.58;65.04;100264.88;4454282;32;34263;-72
2023/10/12 03:41:46;;;;;;;;;;;;;;;14.63;65.38;100263.34;4461182;32;34338;-73
2023/10/12 03:43:40;;;;;;;;;;;;;;;14.69;65.32;100263.56;4462534;32;34628;-74
2023/10/12 03:46:17;;;;;;;;;;;;;;;14.64;65.33;100264.22;4457219;32;34780;-73
2023/10/12 03:53:45;;;;;;;;;;;;;;;14.79;64.30;100248.25;4459609;32;34093;-72
2023/10/12 03:56:14;;;;;;;;;;;;;;;14.88;63.56;100245.94;4455840;32;34778;-75
2023/10/12 03:58:46;;;;;;;;;;;;;;;14.62;64.28;100251.16;4463779;32;33960;-71
2023/10/12 04:01:24;;;;;;;;;;;;;;;14.81;63.79;100251.78;4458472;32;34118;-72
2023/10/12 04:03:58;;;;;;;;;;;;;;;14.86;63.30;100255.44;4462667;32;33336;-72
2023/10/12 04:06:46;;;;;;;;;;;;;;;14.81;63.52;100259.59;4466993;32;34371;-72
2023/10/12 04:09:15;;;;;;;;;;;;;;;14.96;62.99;100251.44;4459118;32;34237;-71
2023/10/12 04:11:50;;;;;;;;;;;;;;;14.84;62.71;100258.00;4456786;32;35142;-72
2023/10/12 04:14:43;;;;;;;;;;;;;;;14.66;63.32;100253.03;4456899;32;33571;-69
2023/10/12 04:17:09;;;;;;;;;;;;;;;14.65;63.30;100253.84;4461330;32;34982;-73
2023/10/12 04:19:43;;;;;;;;;;;;;;;14.52;63.91;100254.22;4461198;32;34733;-69
2023/10/12 04:22:25;;;;;;;;;;;;;;;14.63;63.78;100255.53;4465664;32;34252;-71
2023/10/12 04:24:55;;;;;;;;;;;;;;;14.60;63.88;100258.00;4454378;32;33950;-70
2023/10/12 04:30:19;;;;;;;;;;;;;;;14.44;64.64;100255.66;4460059;32;34803;-70
2023/10/12 04:35:57;;;;;;;;;;;;;;;14.60;64.44;100247.56;4460722;32;33524;-72
2023/10/12 04:44:17;;;;;;;;;;;;;;;14.57;64.93;100247.47;4386572;32;34738;-73
2023/10/12 04:46:48;;;;;;;;;;;;;;;14.70;64.46;100243.59;4389579;32;33769;-72
2023/10/12 04:52:02;;;;;;;;;;;;;;;14.71;64.08;100243.63;4457861;32;33504;-70
2023/10/12 04:54:29;;;;;;;;;;;;;;;14.65;63.78;100250.37;4466535;32;34740;-72
2023/10/12 04:57:12;;;;;;;;;;;;;;;14.59;63.99;100245.81;4466743;32;33287;-71
2023/10/12 04:59:49;;;;;;;;;;;;;;;14.48;63.96;100257.53;4444716;32;35335;-73
2023/10/12 05:07:58;;;;;;;;;;;;;;;14.48;64.23;100275.78;4458833;32;33687;-69
2023/10/12 05:10:46;;;;;;;;;;;;;;;14.50;63.91;100268.91;4460521;32;34286;-71
2023/10/12 05:13:19;;;;;;;;;;;;;;;14.27;64.59;100270.66;4457188;32;34084;-70
2023/10/12 05:15:55;;;;;;;;;;;;;;;14.28;64.89;100272.47;4439493;32;34156;-73
2023/10/12 05:18:23;;;;;;;;;;;;;;;14.48;64.46;100273.19;4452977;32;33176;-73
2023/10/12 05:20:51;;;;;;;;;;;;;;;14.52;64.36;100278.53;4465252;32;34406;-72
2023/10/12 05:23:18;;;;;;;;;;;;;;;14.49;64.61;100275.84;4461292;32;34897;-71
2023/10/12 05:28:31;;;;;;;;;;;;;;;14.52;64.65;100269.84;4465973;32;33403;-71
2023/10/12 05:36:10;;;;;;;;;;;;;;;14.71;64.50;100256.66;4443244;32;34221;-71
2023/10/12 05:38:38;;;;;;;;;;;;;;;14.58;64.79;100262.28;4453187;32;33407;-73
2023/10/12 05:41:08;;;;;;;;;;;;;;;14.55;65.01;100264.75;4443624;32;33620;-71
2023/10/12 05:43:38;;;;;;;;;;;;;;;14.53;64.93;100267.31;4439352;32;34891;-72
2023/10/12 05:46:13;;;;;;;;;;;;;;;14.36;65.31;100274.50;4460560;32;34172;-70
2023/10/12 05:48:45;;;;;;;;;;;;;;;14.36;65.65;100274.50;4455225;32;33355;-70
2023/10/12 05:51:14;;;;;;;;;;;;;;;14.45;65.79;100267.87;4464056;32;34071;-71
2023/10/12 05:53:41;;;;;;;;;;;;;;;14.51;66.03;100268.09;4460158;32;34165;-73
2023/10/12 05:56:08;;;;;;;;;;;;;;;14.64;65.77;100265.13;4456932;32;35130;-70
2023/10/12 05:58:38;;;;;;;;;;;;;;;14.73;65.64;100262.81;4459096;32;32963;-72
2023/10/12 06:01:08;;;;;;;;;;;;;;;14.81;66.01;100262.22;4460148;32;34181;-71
2023/10/12 06:03:46;;;;;;;;;;;;;;;14.74;66.83;100272.44;4463134;32;34231;-73
2023/10/12 06:06:14;;;;;;;;;;;;;;;14.83;67.00;100256.22;4462996;32;35019;-69
2023/10/12 06:08:41;;;;;;;;;;;;;;;14.94;67.04;100267.91;4457642;32;34136;-73
2023/10/12 06:11:10;;;;;;;;;;;;;;;14.89;67.26;100265.97;4444085;32;34211;-71
2023/10/12 06:13:41;;;;;;;;;;;;;;;14.88;67.62;100274.66;4450446;32;34904;-70
2023/10/12 06:16:15;;;;;;;;;;;;;;;15.03;67.36;100285.59;4467276;32;34388;-70
2023/10/12 06:18:44;;;;;;;;;;;;;;;14.97;67.84;100285.41;4458590;32;33380;-73
2023/10/12 06:21:17;;;;;;;;;;;;;;;15.12;67.65;100285.03;4458791;32;34229;-71
2023/10/12 06:23:49;;;;;;;;;;;;;;;15.08;67.83;100273.59;4459896;32;35123;-73
2023/10/12 06:26:29;;;;;;;;;;;;;;;15.24;67.79;100279.31;4457569;32;34179;-69
2023/10/12 06:28:59;;;;;;;;;;;;;;;15.20;68.01;100280.97;4459641;32;33941;-69
2023/10/12 06:31:29;;;;;;;;;;;;;;;15.23;68.46;100288.00;4457916;32;33398;-71
2023/10/12 06:34:03;;;;;;;;;;;;;;;15.30;68.29;100287.38;4446371;32;32612;-71
2023/10/12 06:36:37;;;;;;;;;;;;;;;15.44;68.43;100293.94;4459698;32;34228;-71
2023/10/12 06:44:22;;;;;;;;;;;;;;;15.45;68.92;100290.50;4461454;32;34251;-69
2023/10/12 06:46:50;;;;;;;;;;;;;;;15.65;68.71;100290.25;4457285;32;34466;-70
2023/10/12 06:49:23;;;;;;;;;;;;;;;15.80;67.84;100288.19;4462517;32;34135;-70
2023/10/12 06:52:00;;;;;;;;;;;;;;;15.95;66.84;100284.25;4458572;32;34209;-73
2023/10/12 06:54:32;;;;;;;;;;;;;;;15.97;66.97;100283.44;4458895;32;34281;-71
2023/10/12 06:57:52;;;;;;;;;;;;;;;15.94;67.00;100279.88;4460060;32;33818;-71
2023/10/12 07:02:27;;;;;;;;;;;;;;;16.19;65.23;100279.78;4460500;32;34292;-70
2023/10/12 07:04:55;;;;;;;;;;;;;;;15.99;65.25;100286.12;4458312;32;33700;-70
2023/10/12 07:07:27;;;;;;;;;;;;;;;16.20;64.57;100284.13;4461508;32;34947;-72
2023/10/12 07:12:42;;;;;;;;;;;;;;;16.50;64.46;100296.34;4460731;32;32933;-71
2023/10/12 07:15:11;;;;;;;;;;;;;;;16.54;64.45;100295.59;4461124;32;34700;-71
2023/10/12 07:17:48;;;;;;;;;;;;;;;16.73;63.91;100296.09;4441865;32;32435;-72
2023/10/12 07:23:10;;;;;;;;;;;;;;;16.60;63.64;100293.16;4433584;32;31713;-70
2023/10/12 07:25:37;;;;;;;;;;;;;;;16.85;62.78;100292.13;4456652;32;33879;-71
2023/10/12 07:28:05;;;;;;;;;;;;;;;16.86;62.56;100283.44;4459134;32;33860;-72
2023/10/12 07:30:33;;;;;;;;;;;;;;;16.98;62.13;100288.13;4448441;32;33118;-72
2023/10/12 07:33:07;;;;;;;;;;;;;;;17.04;62.11;100275.19;4463264;32;33590;-72
2023/10/12 07:35:38;;;;;;;;;;;;;;;17.09;62.10;100273.59;4464958;32;34294;-70
2023/10/12 07:38:14;;;;;;;;;;;;;;;17.28;61.81;100281.91;4450173;32;34127;-72
2023/10/12 07:41:00;;;;;;;;;;;;;;;17.25;61.56;100276.59;4448154;32;33362;-70
2023/10/12 07:43:31;;;;;;;;;;;;;;;17.35;61.19;100272.47;4459313;32;34906;-71
2023/10/12 07:46:10;;;;;;;;;;;;;;;17.35;61.09;100268.13;4462476;32;34385;-72
2023/10/12 07:48:44;;;;;;;;;;;;;;;17.49;60.50;100277.19;4453943;32;34646;-73
2023/10/12 07:51:59;;;;;;;;;;;;;;;17.55;60.28;100272.97;4458127;32;33880;-70
2023/10/12 07:54:31;;;;;;;;;;;;;;;17.53;60.32;100270.28;4453999;32;34077;-72
2023/10/12 07:56:53;;;;;;;;;;;;;;;17.78;60.05;100269.12;4460511;32;34757;-73
2023/10/12 07:59:22;;;;;;;;;;;;;;;17.86;60.26;100275.47;4454379;32;34001;-71
2023/10/12 08:01:50;;;;;;;;;;;;;;;18.14;58.63;100278.72;4460536;32;32976;-72
2023/10/12 08:04:31;;;;;;;;;;;;;;;18.20;58.66;100278.84;4458489;32;34286;-71
2023/10/12 08:07:00;;;;;;;;;;;;;;;18.33;58.31;100273.84;4441207;32;33519;-70
2023/10/12 08:11:55;;;;;;;;;;;;;;;18.75;57.48;100263.31;4454578;32;34240;-69
2023/10/12 08:19:42;;;;;;;;;;;;;;;19.36;56.13;100254.81;4457010;32;34814;-72
2023/10/12 08:25:27;;;;;;;;;;;;;;;19.80;54.43;100239.75;4403175;32;34304;-71
2023/10/12 08:28:05;;;;;;;;;;;;;;;19.83;54.35;100239.78;4448724;32;34817;-71
2023/10/12 08:30:57;;;;;;;;;;;;;;;20.17;53.73;100240.25;4456926;32;34276;-71
2023/10/12 08:39:08;;;;;;;;;;;;;;;20.71;51.52;100243.53;4460770;32;33812;-73
2023/10/12 08:41:58;;;;;;;;;;;;;;;20.83;51.87;100240.16;4460103;32;35293;-72
2023/10/12 08:44:26;;;;;;;;;;;;;;;21.15;51.30;100250.09;4455810;32;34066;-73
2023/10/12 08:46:59;;;;;;;;;;;;;;;21.25;49.75;100245.78;4448537;32;34638;-71
2023/10/12 08:49:52;;;;;;;;;;;;;;;21.36;49.73;100245.03;4443600;32;34148;-72
2023/10/12 08:52:29;;;;;;;;;;;;;;;21.35;49.83;100240.59;4460234;32;34778;-74
2023/10/12 08:55:07;;;;;;;;;;;;;;;21.55;49.36;100239.91;4457109;32;34320;-73
2023/10/12 08:57:55;;;;;;;;;;;;;;;21.82;48.77;100235.69;4446987;32;34757;-70
2023/10/12 09:00:39;;;;;;;;;;;;;;;21.82;49.66;100233.06;4466404;32;33892;-71
2023/10/12 09:03:14;;;;;;;;;;;;;;;22.14;48.58;100226.19;4442018;32;34311;-72
2023/10/12 09:05:42;;;;;;;;;;;;;;;22.26;47.68;100230.66;4458626;32;33416;-70
2023/10/12 09:10:55;;;;;;;;;;;;;;;22.41;47.44;100229.84;4455649;32;34839;-71
2023/10/12 09:13:23;;;;;;;;;;;;;;;22.62;47.40;100225.47;4462498;32;34430;-71
2023/10/12 09:15:56;;;;;;;;;;;;;;;22.83;45.99;100233.47;4442306;32;33828;-70
2023/10/12 09:18:26;;;;;;;;;;;;;;;23.12;46.11;100224.69;4458914;32;34274;-71
2023/10/12 09:23:46;;;;;;;;;;;;;;;23.66;45.79;100229.94;4458012;32;35174;-70
2023/10/12 09:31:48;;;;;;;;;;;;;;;24.13;43.76;100221.91;4455433;32;34393;-70
2023/10/12 09:36:49;;;;;;;;;;;;;;;24.47;44.01;100223.50;4454343;32;32762;-72
2023/10/12 09:39:22;;;;;;;;;;;;;;;24.72;42.72;100208.38;4466102;32;33968;-69
2023/10/12 09:42:09;;;;;;;;;;;;;;;25.20;42.15;100205.38;4457728;32;33981;-70
2023/10/12 09:44:39;;;;;;;;;;;;;;;24.78;42.79;100208.34;4439831;32;33762;-69
2023/10/12 09:47:15;;;;;;;;;;;;;;;25.00;42.36;100206.44;4443960;32;33349;-71
2023/10/12 09:49:58;;;;;;;;;;;;;;;25.22;41.55;100199.19;4457595;32;32504;-68
2023/10/12 09:52:41;;;;;;;;;;;;;;;25.17;41.73;100195.69;4467724;32;33919;-71
2023/10/12 09:55:14;;;;;;;;;;;;;;;25.33;42.20;100201.78;4460673;32;33393;-72
2023/10/12 09:57:50;;;;;;;;;;;;;;;25.61;41.72;100197.09;4448539;32;33179;-72
2023/10/12 10:03:08;;;;;;;;;;;;;;;26.07;41.19;100201.88;4433800;32;34318;-71
2023/10/12 10:05:54;;;;;;;;;;;;;;;26.33;40.52;100191.81;4451227;32;33100;-69
2023/10/12 10:08:29;;;;;;;;;;;;;;;26.58;40.08;100192.34;4435499;32;34815;-71
2023/10/12 10:11:07;;;;;;;;;;;;;;;26.82;40.17;100193.78;4430767;32;35025;-71
2023/10/12 10:13:53;;;;;;;;;;;;;;;26.80;39.63;100183.19;4437883;32;34416;-72
2023/10/12 10:16:20;;;;;;;12.52;7.45;;;;;;;27.02;39.38;100189.03;4438168;32;33748;-69
2023/10/12 10:18:48;;;;;;;;;;;;;;;26.84;38.69;100178.69;4434118;32;33770;-70
2023/10/12 10:21:19;;;;;;;;;;;;;;;26.90;38.24;100177.72;4436147;32;33615;-72
2023/10/12 10:23:49;;;;;;;;;;;;;;;27.09;38.07;100178.28;4437091;32;34260;-70
2023/10/12 10:26:30;;;;;;;;;;;;;;;27.03;38.92;100173.97;4437702;32;33996;-72
2023/10/12 10:29:17;;;;;;;;;;;;;;;27.23;38.60;100178.91;4424936;32;33832;-71
2023/10/12 10:31:46;;;;;;;;;;;;;;;27.14;39.37;100172.00;4437523;32;33799;-73
2023/10/12 10:34:14;;;;;;;;;;;;;;;27.10;39.08;100170.31;4433939;32;33772;-72
2023/10/12 10:36:44;;;;;;;;;;;;;;;26.96;39.81;100162.53;4430624;32;32564;-72
2023/10/12 10:44:26;;;;;;;12.02;7.03;;;;;;;27.49;38.43;100157.22;4437332;32;34570;-73
2023/10/12 10:47:00;;;;;;;11.88;7.22;;;;;;;27.74;38.01;100151.38;4437146;32;34572;-73
2023/10/12 10:49:31;;;;;;;;;;;;;;;27.63;38.05;100144.50;4437028;32;34265;-72
2023/10/12 10:52:02;;;;;;;;;;;;;;;27.71;37.96;100154.12;4437595;32;35102;-71
2023/10/12 10:54:32;;;;;;;;;;;;;;;28.05;36.50;100151.69;4437090;32;33542;-73
2023/10/12 10:57:15;;;;;;;;;;;;;;;27.60;37.38;100143.69;4429012;32;32540;-71
2023/10/12 10:59:43;;;;;;;;;;;;;;;27.95;37.48;100144.78;4432457;32;34162;-74
2023/10/12 11:02:14;;;;;;;;;;;;;;;27.74;37.39;100146.97;4427960;32;34772;-74
2023/10/12 11:04:44;;;;;;;;;;;;;;;27.71;38.17;100138.16;4435956;32;34188;-73
2023/10/12 11:12:26;;;;;;;13.62;8.52;;;;;;;27.68;38.65;100141.75;4476130;32;31385;-70
2023/10/12 11:17:41;;;;;;;14.10;8.67;;;;;;;27.41;39.26;100137.84;4479802;32;33781;-70
2023/10/12 11:20:28;;;;;;;15.43;8.50;;;;;;;27.55;38.92;100130.47;4451038;32;33535;-70
2023/10/12 11:22:57;;;;;;;15.27;9.23;;;;;;;27.72;38.56;100137.22;4477973;32;33345;-70
2023/10/12 11:25:28;;;;;;;13.57;8.27;;;;;;;27.52;38.59;100130.53;4465578;32;34184;-72
2023/10/12 11:27:55;;;;;;;15.93;8.70;;;;;;;27.34;39.02;100125.56;4477166;32;32846;-71
2023/10/12 11:30:30;;;;;;;15.68;8.40;;;;;;;27.38;39.84;100125.47;4452810;32;33720;-73
2023/10/12 11:33:00;;;;;;;14.73;8.18;;;;;;;27.59;39.50;100121.53;4477676;32;32808;-73
2023/10/12 11:35:33;;;;;;;12.43;8.02;;;;;;;27.63;39.48;100111.69;4478330;32;33739;-72
2023/10/12 11:38:03;;;;;;;16.92;8.43;;;;;;;27.82;38.99;100106.88;4469149;32;33736;-72
2023/10/12 11:40:31;;;;;;;15.30;8.27;;;;;;;28.04;38.90;100108.16;4467819;32;34202;-72
2023/10/12 11:42:59;;;;;;;14.77;8.75;;;;;;;27.86;39.39;100103.22;4463669;32;32960;-72
2023/10/12 11:45:33;;;;;;;14.27;8.00;;;;;;;27.72;39.76;100107.94;4479222;32;33838;-70
2023/10/12 11:48:20;;;;;;;13.00;7.80;;;;;;;27.31;40.50;100105.22;4451273;32;32908;-71
2023/10/12 11:50:51;;;;;;;15.23;8.63;;;;;;;27.46;40.35;100104.91;4470600;32;32818;-73
2023/10/12 11:53:19;;;;;;;14.43;7.75;;;;;;;28.11;39.23;100097.41;4479051;32;32883;-71
2023/10/12 11:55:49;;;;;;;15.52;8.68;;;;;;;27.98;39.57;100100.31;4478729;32;33742;-73
2023/10/12 11:58:19;;;;;;;14.43;8.02;;;;;;;27.75;39.47;100090.12;4466888;32;34165;-72
2023/10/12 12:00:50;;;;;;;14.32;8.10;;;;;;;27.81;39.54;100089.13;4466142;32;32994;-70
2023/10/12 12:03:18;;;;;;;14.95;9.00;;;;;;;28.03;39.41;100077.16;4465697;32;33782;-72
2023/10/12 12:05:51;;;;;;;12.70;7.82;;;;;;;28.07;38.49;100077.97;4479098;32;33342;-70
2023/10/12 12:08:19;;;;;;;12.88;7.57;;;;;;;28.02;39.14;100083.38;4476423;32;34218;-71
2023/10/12 12:13:20;;;;;;;13.07;8.20;;;;;;;28.44;38.88;100091.28;4464334;32;31479;-73
2023/10/12 12:15:49;;;;;;;15.30;8.48;;;;;;;28.53;38.45;100087.56;4478957;32;33543;-72
2023/10/12 12:18:20;;;;;;;17.13;8.00;;;;;;;28.56;38.04;100079.47;4478038;32;33926;-71
2023/10/12 12:20:51;;;;;;;12.90;7.30;;;;;;;28.22;39.20;100076.69;4454706;32;33568;-72
2023/10/12 12:23:28;;;;;;;13.48;7.10;;;;;;;28.52;38.83;100072.47;4465296;32;32988;-73
2023/10/12 12:26:33;;;;;;;13.50;7.43;;;;;;;28.81;37.65;100079.72;4461102;32;34232;-71
2023/10/12 12:29:02;;;;;;;16.73;7.22;;;;;;;28.92;37.69;100070.59;4458455;32;33843;-71
2023/10/12 12:31:32;;;;;;;13.43;6.72;;;;;;;28.89;38.20;100068.00;4450492;32;32103;-70
2023/10/12 12:34:01;;;;;;;11.00;6.28;;;;;;;28.61;39.12;100060.72;4461718;32;33270;-72
2023/10/12 12:36:30;;;;;;;10.63;5.70;;;;;;;29.15;37.50;100062.88;4467791;32;34661;-70
2023/10/12 12:38:59;;;;;;;13.98;6.60;;;;;;;29.38;37.45;100053.31;4464379;32;33542;-71
2023/10/12 12:41:29;;;;;;;12.98;6.70;;;;;;;29.17;37.35;100052.16;4459833;32;33589;-71
2023/10/12 12:43:59;;;;;;;16.55;7.05;;;;;;;28.77;37.25;100048.72;4447928;32;33034;-72
2023/10/12 12:46:26;;;;;;;15.52;6.85;;;;;;;29.36;36.65;100042.72;4466252;32;33823;-70
2023/10/12 12:48:54;;;;;;;11.48;5.95;;;;;;;29.17;37.71;100034.34;4450179;32;33864;-71
2023/10/12 12:51:22;;;;;;;14.73;6.82;;;;;;;28.95;38.54;100027.81;4462895;32;33424;-72
2023/10/12 12:53:51;;;;;;;13.10;6.68;;;;;;;29.15;37.22;100022.84;4462167;32;33484;-70
2023/10/12 12:56:21;;;;;;;11.93;6.47;;;;;;;29.60;36.36;100022.41;4462844;32;33532;-71
2023/10/12 12:58:51;;;;;;;12.85;6.43;;;;;;;29.44;36.92;100010.47;4461168;32;34030;-71
2023/10/12 13:01:23;;;;;;;8.63;5.05;;;;;;;29.51;36.55;100005.81;4448814;32;33822;-70
2023/10/12 13:03:52;;;;;;;;;;;;;;;30.05;35.77;100012.19;4456306;32;34100;-72
2023/10/12 13:06:22;;;;;;;11.15;6.05;;;;;;;30.35;34.20;100005.88;4469509;32;34241;-71
2023/10/12 13:08:49;;;;;;;12.13;6.07;;;;;;;30.36;34.21;100012.94;4441784;32;33683;-72
2023/10/12 13:11:20;;;;;;;11.07;5.93;;;;;;;29.43;35.84;100006.03;4468126;32;34213;-71
2023/10/12 13:13:48;;;;;;;10.00;5.60;;;;;;;29.60;36.90;100002.87;4467768;32;33629;-71
2023/10/12 13:16:16;;;;;;;12.82;6.03;;;;;;;29.53;37.81;99998.63;4454049;32;34563;-71
2023/10/12 13:18:47;;;;;;;15.57;6.90;;;;;;;29.46;37.41;100003.28;4468242;32;33438;-72
2023/10/12 13:21:16;;;;;;;15.93;6.65;;;;;;;30.20;34.96;100001.00;4466096;32;34221;-71
2023/10/12 13:23:45;;;;;;;;;;;;;;;30.22;35.72;100015.19;4468455;32;33456;-73
2023/10/12 13:26:13;;;;;;;;;;;;;;;30.51;34.07;100008.91;4453613;32;34298;-71
2023/10/12 13:28:41;;;;;;;;;;;;;;;30.68;33.57;100002.97;4469249;32;33633;-73
2023/10/12 13:31:12;;;;;;;;;;;;;;;30.58;33.72;100001.56;4470013;32;33551;-71
2023/10/12 13:33:43;;;;;;;;;;;;;;;30.76;33.72;100002.69;4458554;32;32446;-72
2023/10/12 13:36:11;;;;;;;;;;;;;;;30.75;33.40;100003.63;4451926;32;34914;-72
2023/10/12 13:38:39;;;;;;;;;;;;;;;30.78;33.86;100000.84;4468920;32;34111;-72
2023/10/12 13:41:10;;;;;;;;;;;;;;;30.50;34.12;100006.28;4468543;32;33808;-73
2023/10/12 13:43:39;;;;;;;;;;;;;;;30.56;34.24;99998.06;4469819;32;33592;-72
2023/10/12 13:46:11;;;;;;;;;;;;;;;30.48;34.25;99997.44;4460125;32;34364;-72
2023/10/12 13:48:38;;;;;;;;;;;;;;;30.49;33.72;99991.19;4468652;32;33969;-72
2023/10/12 13:51:17;;;;;;;;;;;;;;;30.23;34.45;99984.88;4461264;32;34565;-71
2023/10/12 13:53:46;;;;;;;;;;;;;;;30.48;34.31;99979.63;4458365;32;33563;-71
2023/10/12 13:56:13;;;;;;;;;;;;;;;30.36;34.68;99982.69;4461143;32;33808;-72
2023/10/12 13:58:42;;;;;;;;;;;;;;;30.49;33.71;99984.03;4465166;32;34140;-72
2023/10/12 14:01:14;;;;;;;;;;;;;;;30.47;33.54;99979.66;4457544;32;34884;-72
2023/10/12 14:03:52;;;;;;;;;;;;;;;30.03;34.33;99976.66;4469016;32;33798;-73
2023/10/12 14:06:20;;;;;;;;;;;;;;;29.94;34.95;99973.34;4466921;32;33927;-73
2023/10/12 14:08:47;;;;;;;;;;;;;;;29.95;34.91;99964.41;4455495;32;33941;-72
2023/10/12 14:11:17;;;;;;;;;;;;;;;30.11;34.71;99966.56;4463224;32;33831;-71
2023/10/12 14:13:45;;;;;;;;;;;;;;;30.15;34.48;99968.22;4456951;32;32893;-71
2023/10/12 14:16:13;;;;;;;;;;;;;;;30.15;34.25;99963.78;4455268;32;34253;-71
2023/10/12 14:18:41;;;;;;;;;;;;;;;30.02;34.63;99969.53;4465207;32;34090;-71
2023/10/12 14:21:11;;;;;;;;;;;;;;;30.13;34.45;99964.72;4460625;32;34660;-71
2023/10/12 14:23:48;;;;;;;;;;;;;;;30.06;35.03;99965.88;4461293;32;32955;-72
2023/10/12 14:26:18;;;;;;;;;;;;;;;30.06;34.82;99973.88;4468657;32;34681;-72
2023/10/12 14:28:50;;;;;;;;;;;;;;;30.14;34.74;99963.81;4456327;32;33654;-73
2023/10/12 14:31:20;;;;;;;;;;;;;;;30.04;34.60;99970.37;4466633;32;34709;-71
2023/10/12 14:33:51;;;;;;;;;;;;;;;29.74;35.19;99965.09;4463319;32;33084;-73
2023/10/12 14:36:20;;;;;;;;;;;;;;;29.69;35.55;99964.31;4469082;32;35482;-70